sensor_id;sensor_type;location;lat;lon;timestamp;pressure;altitude;pressure_sealevel;temperature;humidity
44351;BME280;62766;62.622;17.912;2022-12-19T00:01:21;101422.30;;;-2.51;58.52
44351;BME280;62766;62.622;17.912;2022-12-19T00:03:53;101420.20;;;-2.46;58.08
44351;BME280;62766;62.622;17.912;2022-12-19T00:06:24;101419.52;;;-2.43;57.57
44351;BME280;62766;62.622;17.912;2022-12-19T00:08:54;101412.15;;;-2.57;57.37
44351;BME280;62766;62.622;17.912;2022-12-19T00:11:24;101402.91;;;-2.62;57.33
44351;BME280;62766;62.622;17.912;2022-12-19T00:13:52;101400.24;;;-2.71;57.38
44351;BME280;62766;62.622;17.912;2022-12-19T00:16:22;101399.09;;;-2.80;57.74
44351;BME280;62766;62.622;17.912;2022-12-19T00:18:52;101388.26;;;-2.91;57.82
44351;BME280;62766;62.622;17.912;2022-12-19T00:21:23;101391.69;;;-2.90;58.29
44351;BME280;62766;62.622;17.912;2022-12-19T00:23:51;101397.92;;;-2.84;58.19
44351;BME280;62766;62.622;17.912;2022-12-19T00:26:22;101405.35;;;-2.98;58.14
44351;BME280;62766;62.622;17.912;2022-12-19T00:28:52;101404.97;;;-2.75;57.73
44351;BME280;62766;62.622;17.912;2022-12-19T00:31:21;101406.32;;;-2.94;57.52
44351;BME280;62766;62.622;17.912;2022-12-19T00:33:51;101409.80;;;-2.90;57.68
44351;BME280;62766;62.622;17.912;2022-12-19T00:36:21;101401.20;;;-2.94;57.55
44351;BME280;62766;62.622;17.912;2022-12-19T00:38:50;101393.60;;;-3.03;57.98
44351;BME280;62766;62.622;17.912;2022-12-19T00:41:21;101394.49;;;-3.00;57.95
44351;BME280;62766;62.622;17.912;2022-12-19T00:43:51;101394.42;;;-3.01;58.27
44351;BME280;62766;62.622;17.912;2022-12-19T00:46:21;101395.08;;;-3.06;58.43
44351;BME280;62766;62.622;17.912;2022-12-19T00:48:48;101390.19;;;-3.12;58.32
44351;BME280;62766;62.622;17.912;2022-12-19T00:51:20;101393.93;;;-3.07;58.40
44351;BME280;62766;62.622;17.912;2022-12-19T00:53:51;101397.48;;;-3.18;58.51
44351;BME280;62766;62.622;17.912;2022-12-19T00:56:22;101404.48;;;-3.32;58.64
44351;BME280;62766;62.622;17.912;2022-12-19T00:58:51;101406.56;;;-3.21;58.39
44351;BME280;62766;62.622;17.912;2022-12-19T01:01:24;101403.31;;;-3.10;58.36
44351;BME280;62766;62.622;17.912;2022-12-19T01:03:56;101405.78;;;-3.05;58.17
44351;BME280;62766;62.622;17.912;2022-12-19T01:06:25;101411.50;;;-3.19;58.12
44351;BME280;62766;62.622;17.912;2022-12-19T01:08:54;101410.38;;;-3.25;58.14
44351;BME280;62766;62.622;17.912;2022-12-19T01:11:23;101402.32;;;-3.44;58.33
44351;BME280;62766;62.622;17.912;2022-12-19T01:13:51;101403.45;;;-3.50;58.42
44351;BME280;62766;62.622;17.912;2022-12-19T01:16:20;101401.21;;;-3.46;58.65
44351;BME280;62766;62.622;17.912;2022-12-19T01:18:49;101403.20;;;-3.41;58.60
44351;BME280;62766;62.622;17.912;2022-12-19T01:21:17;101403.19;;;-3.50;58.76
44351;BME280;62766;62.622;17.912;2022-12-19T01:23:46;101402.13;;;-3.50;58.96
44351;BME280;62766;62.622;17.912;2022-12-19T01:26:15;101398.57;;;-3.60;59.00
44351;BME280;62766;62.622;17.912;2022-12-19T01:28:43;101402.40;;;-3.52;59.03
44351;BME280;62766;62.622;17.912;2022-12-19T01:31:12;101400.91;;;-3.56;59.03
44351;BME280;62766;62.622;17.912;2022-12-19T01:33:40;101395.68;;;-3.50;58.91
44351;BME280;62766;62.622;17.912;2022-12-19T01:36:09;101404.78;;;-3.46;58.92
44351;BME280;62766;62.622;17.912;2022-12-19T01:38:37;101408.89;;;-3.46;59.15
44351;BME280;62766;62.622;17.912;2022-12-19T01:41:06;101408.17;;;-3.54;59.05
44351;BME280;62766;62.622;17.912;2022-12-19T01:43:54;101406.21;;;-3.50;58.92
44351;BME280;62766;62.622;17.912;2022-12-19T01:46:26;101405.87;;;-3.70;58.92
44351;BME280;62766;62.622;17.912;2022-12-19T01:48:59;101406.33;;;-3.60;58.89
44351;BME280;62766;62.622;17.912;2022-12-19T01:51:33;101405.28;;;-3.51;58.84
44351;BME280;62766;62.622;17.912;2022-12-19T01:54:06;101413.05;;;-3.41;58.76
44351;BME280;62766;62.622;17.912;2022-12-19T01:56:45;101408.38;;;-3.42;58.70
44351;BME280;62766;62.622;17.912;2022-12-19T01:59:19;101402.97;;;-3.49;58.73
44351;BME280;62766;62.622;17.912;2022-12-19T02:01:51;101403.32;;;-3.59;58.61
44351;BME280;62766;62.622;17.912;2022-12-19T02:04:22;101404.72;;;-3.55;58.60
44351;BME280;62766;62.622;17.912;2022-12-19T02:06:51;101405.78;;;-3.68;58.45
44351;BME280;62766;62.622;17.912;2022-12-19T02:09:21;101411.24;;;-3.61;58.44
44351;BME280;62766;62.622;17.912;2022-12-19T02:11:50;101421.82;;;-3.72;58.51
44351;BME280;62766;62.622;17.912;2022-12-19T02:14:19;101431.72;;;-3.76;58.57
44351;BME280;62766;62.622;17.912;2022-12-19T02:16:53;101430.85;;;-3.77;58.75
44351;BME280;62766;62.622;17.912;2022-12-19T02:19:43;101437.67;;;-3.72;58.73
44351;BME280;62766;62.622;17.912;2022-12-19T02:22:25;101434.97;;;-3.70;58.90
44351;BME280;62766;62.622;17.912;2022-12-19T02:25:20;101431.01;;;-3.65;58.95
44351;BME280;62766;62.622;17.912;2022-12-19T02:28:20;101432.02;;;-3.62;58.46
44351;BME280;62766;62.622;17.912;2022-12-19T02:31:05;101434.21;;;-3.57;58.46
44351;BME280;62766;62.622;17.912;2022-12-19T02:33:41;101434.62;;;-3.63;58.28
44351;BME280;62766;62.622;17.912;2022-12-19T02:36:15;101441.81;;;-3.55;58.16
44351;BME280;62766;62.622;17.912;2022-12-19T02:38:51;101442.77;;;-3.68;58.25
44351;BME280;62766;62.622;17.912;2022-12-19T02:41:24;101445.14;;;-3.70;58.30
44351;BME280;62766;62.622;17.912;2022-12-19T02:43:55;101449.20;;;-3.66;58.20
44351;BME280;62766;62.622;17.912;2022-12-19T02:46:25;101445.20;;;-3.63;58.22
44351;BME280;62766;62.622;17.912;2022-12-19T02:48:55;101448.88;;;-3.69;58.32
44351;BME280;62766;62.622;17.912;2022-12-19T02:51:25;101453.01;;;-3.68;58.21
44351;BME280;62766;62.622;17.912;2022-12-19T02:53:54;101457.49;;;-3.61;58.09
44351;BME280;62766;62.622;17.912;2022-12-19T02:56:34;101459.69;;;-3.71;57.86
44351;BME280;62766;62.622;17.912;2022-12-19T02:59:18;101463.84;;;-3.58;57.56
44351;BME280;62766;62.622;17.912;2022-12-19T03:01:54;101467.59;;;-3.66;57.28
44351;BME280;62766;62.622;17.912;2022-12-19T03:04:34;101464.98;;;-3.61;57.29
44351;BME280;62766;62.622;17.912;2022-12-19T03:07:15;101465.07;;;-3.76;57.27
44351;BME280;62766;62.622;17.912;2022-12-19T03:09:53;101465.67;;;-3.85;57.60
44351;BME280;62766;62.622;17.912;2022-12-19T03:12:28;101468.46;;;-3.78;57.83
44351;BME280;62766;62.622;17.912;2022-12-19T03:14:58;101467.92;;;-3.76;58.11
44351;BME280;62766;62.622;17.912;2022-12-19T03:17:33;101470.48;;;-3.90;58.27
44351;BME280;62766;62.622;17.912;2022-12-19T03:20:07;101466.15;;;-3.87;58.12
44351;BME280;62766;62.622;17.912;2022-12-19T03:22:37;101463.06;;;-4.03;58.19
44351;BME280;62766;62.622;17.912;2022-12-19T03:25:07;101467.09;;;-3.96;58.14
44351;BME280;62766;62.622;17.912;2022-12-19T03:27:36;101465.14;;;-3.93;58.06
44351;BME280;62766;62.622;17.912;2022-12-19T03:30:10;101464.11;;;-3.96;58.02
44351;BME280;62766;62.622;17.912;2022-12-19T03:32:41;101461.63;;;-3.85;57.77
44351;BME280;62766;62.622;17.912;2022-12-19T03:35:16;101464.32;;;-3.85;57.63
44351;BME280;62766;62.622;17.912;2022-12-19T03:37:46;101468.89;;;-3.84;57.46
44351;BME280;62766;62.622;17.912;2022-12-19T03:40:19;101476.81;;;-3.94;57.63
44351;BME280;62766;62.622;17.912;2022-12-19T03:42:52;101480.75;;;-3.79;57.47
44351;BME280;62766;62.622;17.912;2022-12-19T03:45:28;101484.25;;;-3.88;57.27
44351;BME280;62766;62.622;17.912;2022-12-19T03:48:04;101482.98;;;-3.73;57.27
44351;BME280;62766;62.622;17.912;2022-12-19T03:50:42;101484.78;;;-3.65;57.09
44351;BME280;62766;62.622;17.912;2022-12-19T03:53:23;101485.39;;;-3.65;56.76
44351;BME280;62766;62.622;17.912;2022-12-19T03:56:00;101487.89;;;-3.75;56.61
44351;BME280;62766;62.622;17.912;2022-12-19T03:58:34;101490.82;;;-3.80;56.50
44351;BME280;62766;62.622;17.912;2022-12-19T04:01:05;101496.84;;;-3.79;56.56
44351;BME280;62766;62.622;17.912;2022-12-19T04:03:34;101503.72;;;-3.82;56.43
44351;BME280;62766;62.622;17.912;2022-12-19T04:06:02;101502.50;;;-3.84;56.67
44351;BME280;62766;62.622;17.912;2022-12-19T04:08:34;101505.61;;;-3.95;56.68
44351;BME280;62766;62.622;17.912;2022-12-19T04:11:06;101500.64;;;-3.89;56.77
44351;BME280;62766;62.622;17.912;2022-12-19T04:13:40;101499.71;;;-3.98;56.93
44351;BME280;62766;62.622;17.912;2022-12-19T04:16:16;101500.46;;;-4.17;56.94
44351;BME280;62766;62.622;17.912;2022-12-19T04:18:52;101500.84;;;-4.12;57.12
44351;BME280;62766;62.622;17.912;2022-12-19T04:21:26;101498.92;;;-4.31;57.38
44351;BME280;62766;62.622;17.912;2022-12-19T04:24:01;101499.38;;;-4.25;57.44
44351;BME280;62766;62.622;17.912;2022-12-19T04:26:33;101502.78;;;-4.34;57.59
44351;BME280;62766;62.622;17.912;2022-12-19T04:29:05;101498.37;;;-4.34;57.78
44351;BME280;62766;62.622;17.912;2022-12-19T04:31:35;101494.00;;;-4.39;58.09
44351;BME280;62766;62.622;17.912;2022-12-19T04:34:05;101494.92;;;-4.50;58.33
44351;BME280;62766;62.622;17.912;2022-12-19T04:36:34;101496.66;;;-4.57;58.51
44351;BME280;62766;62.622;17.912;2022-12-19T04:39:03;101498.85;;;-4.69;58.75
44351;BME280;62766;62.622;17.912;2022-12-19T04:41:31;101495.43;;;-4.68;58.91
44351;BME280;62766;62.622;17.912;2022-12-19T04:44:00;101494.49;;;-4.70;59.14
44351;BME280;62766;62.622;17.912;2022-12-19T04:46:28;101494.24;;;-4.72;59.30
44351;BME280;62766;62.622;17.912;2022-12-19T04:48:57;101491.48;;;-4.65;59.33
44351;BME280;62766;62.622;17.912;2022-12-19T04:51:25;101488.45;;;-4.71;59.31
44351;BME280;62766;62.622;17.912;2022-12-19T04:53:54;101487.42;;;-4.75;59.34
44351;BME280;62766;62.622;17.912;2022-12-19T04:56:23;101491.82;;;-4.75;59.53
44351;BME280;62766;62.622;17.912;2022-12-19T04:58:55;101490.79;;;-4.77;59.67
44351;BME280;62766;62.622;17.912;2022-12-19T05:03:42;101500.72;;;-4.99;60.03
44351;BME280;62766;62.622;17.912;2022-12-19T05:06:13;101502.22;;;-4.93;59.97
44351;BME280;62766;62.622;17.912;2022-12-19T05:08:41;101501.05;;;-4.74;59.71
44351;BME280;62766;62.622;17.912;2022-12-19T05:11:11;101500.93;;;-4.74;59.30
44351;BME280;62766;62.622;17.912;2022-12-19T05:13:40;101500.81;;;-4.53;58.60
44351;BME280;62766;62.622;17.912;2022-12-19T05:16:10;101500.12;;;-4.48;58.12
44351;BME280;62766;62.622;17.912;2022-12-19T05:18:39;101498.93;;;-4.47;57.99
44351;BME280;62766;62.622;17.912;2022-12-19T05:21:08;101496.36;;;-4.44;57.91
44351;BME280;62766;62.622;17.912;2022-12-19T05:23:36;101491.54;;;-4.33;57.58
44351;BME280;62766;62.622;17.912;2022-12-19T05:26:06;101488.16;;;-4.35;57.52
44351;BME280;62766;62.622;17.912;2022-12-19T05:28:35;101490.90;;;-4.39;57.41
44351;BME280;62766;62.622;17.912;2022-12-19T05:31:07;101494.85;;;-4.39;57.24
44351;BME280;62766;62.622;17.912;2022-12-19T05:33:37;101502.07;;;-4.40;56.97
44351;BME280;62766;62.622;17.912;2022-12-19T05:36:08;101506.88;;;-4.38;56.72
44351;BME280;62766;62.622;17.912;2022-12-19T05:38:37;101507.38;;;-4.25;56.42
44351;BME280;62766;62.622;17.912;2022-12-19T05:41:07;101496.37;;;-4.40;56.64
44351;BME280;62766;62.622;17.912;2022-12-19T05:43:36;101495.87;;;-4.38;56.64
44351;BME280;62766;62.622;17.912;2022-12-19T05:46:06;101495.37;;;-4.45;56.93
44351;BME280;62766;62.622;17.912;2022-12-19T05:48:35;101491.62;;;-4.43;57.00
44351;BME280;62766;62.622;17.912;2022-12-19T05:51:04;101490.22;;;-4.42;57.00
44351;BME280;62766;62.622;17.912;2022-12-19T05:53:33;101489.20;;;-4.44;56.99
44351;BME280;62766;62.622;17.912;2022-12-19T05:56:04;101488.45;;;-4.36;56.98
44351;BME280;62766;62.622;17.912;2022-12-19T05:58:32;101492.62;;;-4.25;56.83
44351;BME280;62766;62.622;17.912;2022-12-19T06:01:04;101491.02;;;-4.22;57.01
44351;BME280;62766;62.622;17.912;2022-12-19T06:03:33;101493.41;;;-4.16;56.95
44351;BME280;62766;62.622;17.912;2022-12-19T06:06:03;101494.91;;;-4.09;56.80
44351;BME280;62766;62.622;17.912;2022-12-19T06:08:32;101495.84;;;-4.07;56.64
44351;BME280;62766;62.622;17.912;2022-12-19T06:11:02;101494.13;;;-3.86;56.40
44351;BME280;62766;62.622;17.912;2022-12-19T06:13:32;101486.93;;;-3.78;55.95
44351;BME280;62766;62.622;17.912;2022-12-19T06:16:02;101486.10;;;-3.78;55.81
44351;BME280;62766;62.622;17.912;2022-12-19T06:18:31;101491.32;;;-3.67;55.65
44351;BME280;62766;62.622;17.912;2022-12-19T06:21:00;101498.06;;;-3.72;55.55
44351;BME280;62766;62.622;17.912;2022-12-19T06:23:30;101496.15;;;-3.62;55.35
44351;BME280;62766;62.622;17.912;2022-12-19T06:26:01;101499.98;;;-3.66;55.24
44351;BME280;62766;62.622;17.912;2022-12-19T06:28:30;101504.26;;;-3.50;55.04
44351;BME280;62766;62.622;17.912;2022-12-19T06:31:00;101507.19;;;-3.55;54.70
44351;BME280;62766;62.622;17.912;2022-12-19T06:33:29;101515.08;;;-3.78;54.72
44351;BME280;62766;62.622;17.912;2022-12-19T06:36:00;101513.97;;;-3.95;55.49
44351;BME280;62766;62.622;17.912;2022-12-19T06:38:29;101511.87;;;-4.18;55.95
44351;BME280;62766;62.622;17.912;2022-12-19T06:40:58;101510.95;;;-4.00;56.09
44351;BME280;62766;62.622;17.912;2022-12-19T06:43:26;101504.77;;;-4.23;56.46
44351;BME280;62766;62.622;17.912;2022-12-19T06:45:56;101504.89;;;-4.39;56.85
44351;BME280;62766;62.622;17.912;2022-12-19T06:48:26;101509.35;;;-4.53;57.38
44351;BME280;62766;62.622;17.912;2022-12-19T06:50:54;101508.35;;;-4.59;57.73
44351;BME280;62766;62.622;17.912;2022-12-19T06:53:23;101506.67;;;-4.69;58.14
44351;BME280;62766;62.622;17.912;2022-12-19T06:55:54;101514.33;;;-4.67;58.38
44351;BME280;62766;62.622;17.912;2022-12-19T06:58:24;101518.79;;;-4.82;58.81
44351;BME280;62766;62.622;17.912;2022-12-19T07:00:52;101515.00;;;-4.98;59.09
44351;BME280;62766;62.622;17.912;2022-12-19T07:03:24;101522.52;;;-5.05;59.42
44351;BME280;62766;62.622;17.912;2022-12-19T07:05:55;101526.71;;;-5.17;59.56
44351;BME280;62766;62.622;17.912;2022-12-19T07:08:23;101528.74;;;-5.18;59.64
44351;BME280;62766;62.622;17.912;2022-12-19T07:10:52;101528.78;;;-5.14;59.68
44351;BME280;62766;62.622;17.912;2022-12-19T07:13:21;101532.51;;;-5.10;59.80
44351;BME280;62766;62.622;17.912;2022-12-19T07:15:50;101525.85;;;-5.06;59.79
44351;BME280;62766;62.622;17.912;2022-12-19T07:18:20;101530.58;;;-5.31;59.83
44351;BME280;62766;62.622;17.912;2022-12-19T07:20:48;101527.36;;;-5.12;59.74
44351;BME280;62766;62.622;17.912;2022-12-19T07:23:19;101527.58;;;-5.10;59.76
44351;BME280;62766;62.622;17.912;2022-12-19T07:25:47;101524.53;;;-5.16;59.88
44351;BME280;62766;62.622;17.912;2022-12-19T07:28:16;101530.49;;;-5.23;59.88
44351;BME280;62766;62.622;17.912;2022-12-19T07:30:45;101535.93;;;-5.29;59.93
44351;BME280;62766;62.622;17.912;2022-12-19T07:33:13;101539.32;;;-5.27;60.25
44351;BME280;62766;62.622;17.912;2022-12-19T07:35:42;101539.62;;;-5.32;60.24
44351;BME280;62766;62.622;17.912;2022-12-19T07:38:11;101536.29;;;-5.38;60.10
44351;BME280;62766;62.622;17.912;2022-12-19T07:40:39;101537.11;;;-5.31;60.06
44351;BME280;62766;62.622;17.912;2022-12-19T07:43:09;101530.56;;;-5.47;60.31
44351;BME280;62766;62.622;17.912;2022-12-19T07:45:37;101533.77;;;-5.52;60.22
44351;BME280;62766;62.622;17.912;2022-12-19T07:48:07;101541.47;;;-5.55;60.29
44351;BME280;62766;62.622;17.912;2022-12-19T07:50:36;101536.61;;;-5.38;60.20
44351;BME280;62766;62.622;17.912;2022-12-19T07:53:05;101534.55;;;-5.28;59.85
44351;BME280;62766;62.622;17.912;2022-12-19T07:55:33;101538.93;;;-5.50;59.84
44351;BME280;62766;62.622;17.912;2022-12-19T07:58:02;101544.95;;;-5.33;59.74
44351;BME280;62766;62.622;17.912;2022-12-19T08:00:30;101541.19;;;-5.27;59.61
44351;BME280;62766;62.622;17.912;2022-12-19T08:02:59;101548.16;;;-5.31;59.40
44351;BME280;62766;62.622;17.912;2022-12-19T08:05:27;101550.60;;;-5.32;59.49
44351;BME280;62766;62.622;17.912;2022-12-19T08:07:57;101545.58;;;-5.24;59.25
44351;BME280;62766;62.622;17.912;2022-12-19T08:10:25;101540.65;;;-5.45;59.21
44351;BME280;62766;62.622;17.912;2022-12-19T08:12:53;101538.67;;;-5.24;59.23
44351;BME280;62766;62.622;17.912;2022-12-19T08:15:22;101537.26;;;-5.32;58.93
44351;BME280;62766;62.622;17.912;2022-12-19T08:17:52;101535.58;;;-5.07;58.48
44351;BME280;62766;62.622;17.912;2022-12-19T08:20:21;101533.54;;;-4.98;58.24
44351;BME280;62766;62.622;17.912;2022-12-19T08:22:50;101533.03;;;-5.06;58.07
44351;BME280;62766;62.622;17.912;2022-12-19T08:25:18;101531.63;;;-5.02;57.79
44351;BME280;62766;62.622;17.912;2022-12-19T08:27:47;101532.96;;;-4.89;57.78
44351;BME280;62766;62.622;17.912;2022-12-19T08:30:16;101524.17;;;-4.93;57.88
44351;BME280;62766;62.622;17.912;2022-12-19T08:32:44;101534.17;;;-5.10;58.28
44351;BME280;62766;62.622;17.912;2022-12-19T08:35:13;101530.11;;;-5.02;58.29
44351;BME280;62766;62.622;17.912;2022-12-19T08:37:42;101533.02;;;-5.12;58.36
44351;BME280;62766;62.622;17.912;2022-12-19T08:40:11;101536.94;;;-5.15;58.59
44351;BME280;62766;62.622;17.912;2022-12-19T08:42:39;101541.67;;;-5.17;58.34
44351;BME280;62766;62.622;17.912;2022-12-19T08:45:08;101546.59;;;-4.99;57.92
44351;BME280;62766;62.622;17.912;2022-12-19T08:47:36;101545.39;;;-5.12;57.79
44351;BME280;62766;62.622;17.912;2022-12-19T08:50:06;101541.40;;;-4.90;57.56
44351;BME280;62766;62.622;17.912;2022-12-19T08:52:36;101532.59;;;-4.92;57.42
44351;BME280;62766;62.622;17.912;2022-12-19T08:55:05;101523.32;;;-4.99;57.19
44351;BME280;62766;62.622;17.912;2022-12-19T08:57:34;101525.07;;;-4.86;57.13
44351;BME280;62766;62.622;17.912;2022-12-19T09:00:04;101520.22;;;-4.91;57.11
44351;BME280;62766;62.622;17.912;2022-12-19T09:02:33;101520.79;;;-4.85;57.28
44351;BME280;62766;62.622;17.912;2022-12-19T09:05:02;101519.81;;;-4.94;57.21
44351;BME280;62766;62.622;17.912;2022-12-19T09:07:30;101519.80;;;-4.72;57.17
44351;BME280;62766;62.622;17.912;2022-12-19T09:09:59;101523.31;;;-4.79;56.80
44351;BME280;62766;62.622;17.912;2022-12-19T09:12:28;101521.37;;;-4.67;56.56
44351;BME280;62766;62.622;17.912;2022-12-19T09:14:56;101528.15;;;-4.50;56.44
44351;BME280;62766;62.622;17.912;2022-12-19T09:17:27;101527.74;;;-4.43;56.18
44351;BME280;62766;62.622;17.912;2022-12-19T09:19:55;101526.31;;;-4.28;55.70
44351;BME280;62766;62.622;17.912;2022-12-19T09:22:24;101521.99;;;-4.13;55.52
44351;BME280;62766;62.622;17.912;2022-12-19T09:24:53;101516.66;;;-3.99;55.21
44351;BME280;62766;62.622;17.912;2022-12-19T09:27:22;101510.58;;;-3.88;55.17
44351;BME280;62766;62.622;17.912;2022-12-19T09:29:52;101516.17;;;-3.74;54.31
44351;BME280;62766;62.622;17.912;2022-12-19T09:32:20;101515.59;;;-3.63;53.95
44351;BME280;62766;62.622;17.912;2022-12-19T09:34:49;101515.90;;;-3.43;53.56
44351;BME280;62766;62.622;17.912;2022-12-19T09:37:17;101511.81;;;-3.33;53.18
44351;BME280;62766;62.622;17.912;2022-12-19T09:39:47;101514.11;;;-3.26;52.97
44351;BME280;62766;62.622;17.912;2022-12-19T09:42:33;101512.20;;;-3.27;52.91
44351;BME280;62766;62.622;17.912;2022-12-19T09:45:17;101506.65;;;-3.15;52.60
44351;BME280;62766;62.622;17.912;2022-12-19T09:47:55;101497.31;;;-3.11;51.99
44351;BME280;62766;62.622;17.912;2022-12-19T09:50:32;101494.29;;;-3.15;52.05
44351;BME280;62766;62.622;17.912;2022-12-19T09:53:11;101486.93;;;-2.98;51.80
44351;BME280;62766;62.622;17.912;2022-12-19T09:55:43;101480.24;;;-3.04;51.61
44351;BME280;62766;62.622;17.912;2022-12-19T09:58:29;101473.48;;;-3.07;51.55
44351;BME280;62766;62.622;17.912;2022-12-19T10:01:03;101464.12;;;-3.03;51.25
44351;BME280;62766;62.622;17.912;2022-12-19T10:03:35;101456.64;;;-3.14;50.94
44351;BME280;62766;62.622;17.912;2022-12-19T10:06:13;101456.07;;;-3.08;50.89
44351;BME280;62766;62.622;17.912;2022-12-19T10:08:43;101449.17;;;-3.10;50.28
44351;BME280;62766;62.622;17.912;2022-12-19T10:11:31;101445.50;;;-3.22;50.68
44351;BME280;62766;62.622;17.912;2022-12-19T10:14:18;101443.69;;;-3.26;50.84
44351;BME280;62766;62.622;17.912;2022-12-19T10:16:58;101438.84;;;-3.19;51.02
44351;BME280;62766;62.622;17.912;2022-12-19T10:19:38;101442.29;;;-3.19;51.32
44351;BME280;62766;62.622;17.912;2022-12-19T10:22:17;101439.13;;;-3.23;51.55
44351;BME280;62766;62.622;17.912;2022-12-19T10:25:13;101429.05;;;-3.28;51.24
44351;BME280;62766;62.622;17.912;2022-12-19T10:27:50;101425.04;;;-3.11;51.33
44351;BME280;62766;62.622;17.912;2022-12-19T10:30:21;101424.81;;;-3.15;51.18
44351;BME280;62766;62.622;17.912;2022-12-19T10:32:58;101426.49;;;-3.18;50.85
44351;BME280;62766;62.622;17.912;2022-12-19T10:35:33;101421.54;;;-3.17;50.77
44351;BME280;62766;62.622;17.912;2022-12-19T10:38:14;101421.52;;;-3.33;50.94
44351;BME280;62766;62.622;17.912;2022-12-19T10:40:52;101423.28;;;-3.32;51.24
44351;BME280;62766;62.622;17.912;2022-12-19T10:43:30;101425.11;;;-3.40;51.65
44351;BME280;62766;62.622;17.912;2022-12-19T10:46:12;101431.66;;;-3.30;51.57
44351;BME280;62766;62.622;17.912;2022-12-19T10:48:42;101425.15;;;-3.20;51.21
44351;BME280;62766;62.622;17.912;2022-12-19T10:51:11;101421.93;;;-3.25;51.02
44351;BME280;62766;62.622;17.912;2022-12-19T10:53:52;101422.46;;;-3.28;51.22
44351;BME280;62766;62.622;17.912;2022-12-19T10:56:23;101426.47;;;-3.40;51.49
44351;BME280;62766;62.622;17.912;2022-12-19T10:58:54;101420.63;;;-3.52;51.99
44351;BME280;62766;62.622;17.912;2022-12-19T11:03:41;101411.43;;;-3.65;51.72
44351;BME280;62766;62.622;17.912;2022-12-19T11:07:18;101401.94;;;-3.46;51.63
44351;BME280;62766;62.622;17.912;2022-12-19T11:09:48;101404.37;;;-3.29;51.62
44351;BME280;62766;62.622;17.912;2022-12-19T11:12:18;101399.97;;;-3.32;51.39
44351;BME280;62766;62.622;17.912;2022-12-19T11:14:51;101398.86;;;-3.33;51.74
44351;BME280;62766;62.622;17.912;2022-12-19T11:17:24;101390.04;;;-3.27;51.79
44351;BME280;62766;62.622;17.912;2022-12-19T11:19:55;101385.88;;;-3.29;51.77
44351;BME280;62766;62.622;17.912;2022-12-19T11:22:28;101386.99;;;-3.42;51.48
44351;BME280;62766;62.622;17.912;2022-12-19T11:24:56;101384.46;;;-3.32;51.46
44351;BME280;62766;62.622;17.912;2022-12-19T11:27:31;101390.11;;;-3.28;51.13
44351;BME280;62766;62.622;17.912;2022-12-19T11:30:07;101388.62;;;-3.32;51.24
44351;BME280;62766;62.622;17.912;2022-12-19T11:32:38;101397.82;;;-3.31;51.22
44351;BME280;62766;62.622;17.912;2022-12-19T11:35:15;101401.05;;;-3.46;51.71
44351;BME280;62766;62.622;17.912;2022-12-19T11:37:50;101391.48;;;-3.32;51.85
44351;BME280;62766;62.622;17.912;2022-12-19T11:40:28;101389.07;;;-3.26;51.81
44351;BME280;62766;62.622;17.912;2022-12-19T11:43:02;101387.60;;;-3.17;51.41
44351;BME280;62766;62.622;17.912;2022-12-19T11:45:42;101386.65;;;-3.25;51.10
44351;BME280;62766;62.622;17.912;2022-12-19T11:48:22;101383.93;;;-3.36;51.26
44351;BME280;62766;62.622;17.912;2022-12-19T11:51:00;101382.10;;;-3.36;51.20
44351;BME280;62766;62.622;17.912;2022-12-19T11:53:38;101382.39;;;-3.21;50.92
44351;BME280;62766;62.622;17.912;2022-12-19T11:56:13;101383.08;;;-3.43;50.89
44351;BME280;62766;62.622;17.912;2022-12-19T11:58:48;101384.68;;;-3.57;51.39
44351;BME280;62766;62.622;17.912;2022-12-19T12:01:29;101381.94;;;-3.66;51.68
44351;BME280;62766;62.622;17.912;2022-12-19T12:04:18;101377.17;;;-3.62;51.72
44351;BME280;62766;62.622;17.912;2022-12-19T12:06:58;101372.08;;;-3.72;52.13
44351;BME280;62766;62.622;17.912;2022-12-19T12:09:32;101369.77;;;-3.68;52.19
44351;BME280;62766;62.622;17.912;2022-12-19T12:12:12;101367.19;;;-3.52;52.63
44351;BME280;62766;62.622;17.912;2022-12-19T12:14:54;101371.89;;;-3.43;52.63
44351;BME280;62766;62.622;17.912;2022-12-19T12:17:36;101367.10;;;-3.32;52.23
44351;BME280;62766;62.622;17.912;2022-12-19T12:20:18;101365.49;;;-3.38;52.29
44351;BME280;62766;62.622;17.912;2022-12-19T12:23:00;101362.43;;;-3.28;51.71
44351;BME280;62766;62.622;17.912;2022-12-19T12:25:46;101369.49;;;-3.09;51.50
44351;BME280;62766;62.622;17.912;2022-12-19T12:28:33;101357.15;;;-3.29;51.69
44351;BME280;62766;62.622;17.912;2022-12-19T12:31:13;101351.69;;;-3.40;51.86
44351;BME280;62766;62.622;17.912;2022-12-19T12:33:54;101348.22;;;-3.20;51.93
44351;BME280;62766;62.622;17.912;2022-12-19T12:36:28;101346.01;;;-3.09;52.01
44351;BME280;62766;62.622;17.912;2022-12-19T12:39:03;101337.81;;;-3.01;52.01
44351;BME280;62766;62.622;17.912;2022-12-19T12:41:42;101331.13;;;-3.11;52.01
44351;BME280;62766;62.622;17.912;2022-12-19T12:44:14;101328.09;;;-3.13;52.23
44351;BME280;62766;62.622;17.912;2022-12-19T12:46:47;101319.31;;;-3.25;52.49
44351;BME280;62766;62.622;17.912;2022-12-19T12:49:27;101307.29;;;-3.20;52.35
44351;BME280;62766;62.622;17.912;2022-12-19T12:52:02;101316.29;;;-3.13;52.51
44351;BME280;62766;62.622;17.912;2022-12-19T12:54:35;101323.44;;;-3.13;52.34
44351;BME280;62766;62.622;17.912;2022-12-19T12:57:05;101322.48;;;-3.23;52.35
44351;BME280;62766;62.622;17.912;2022-12-19T12:59:35;101322.14;;;-3.21;52.21
44351;BME280;62766;62.622;17.912;2022-12-19T13:02:13;101318.32;;;-3.04;52.01
44351;BME280;62766;62.622;17.912;2022-12-19T13:04:55;101319.32;;;-3.22;51.84
44351;BME280;62766;62.622;17.912;2022-12-19T13:07:30;101310.94;;;-3.17;51.87
44351;BME280;62766;62.622;17.912;2022-12-19T13:10:14;101312.79;;;-3.34;51.85
44351;BME280;62766;62.622;17.912;2022-12-19T13:12:53;101310.87;;;-3.35;51.83